Time;durP1;ratioP1;P1;durP2;ratioP2;P2;SDS_P1;SDS_P2;PMS_P1;PMS_P2;Temp;Humidity;BMP_temperature;BMP_pressure;BME280_temperature;BME280_humidity;BME280_pressure;Samples;Min_cycle;Max_cycle;Signal;HPM_P1;HPM_P2
2023/10/22 00:02:11;;;;;;;0.15;0.15;;;;;;;20.86;56.59;94463.19;5074961;28;20203;-74
2023/10/22 00:04:39;;;;;;;1.92;0.82;;;;;;;20.69;58.42;94463.22;5075220;28;20211;-76
2023/10/22 00:07:06;;;;;;;0.65;0.60;;;;;;;20.55;58.74;94456.53;5078975;28;20727;-74
2023/10/22 00:09:32;;;;;;;2.25;0.98;;;;;;;20.45;59.15;94451.06;5075732;28;20210;-74
2023/10/22 00:11:59;;;;;;;0.30;0.30;;;;;;;20.45;57.81;94435.34;5090971;28;20332;-74
2023/10/22 00:14:26;;;;;;;1.20;0.90;;;;;;;20.45;58.11;94429.84;5079529;28;20247;-75
2023/10/22 00:16:53;;;;;;;1.70;0.95;;;;;;;20.58;56.93;94439.25;5086611;28;20233;-74
2023/10/22 00:19:21;;;;;;;0.68;0.57;;;;;;;20.56;56.85;94441.59;5083532;28;20210;-73
2023/10/22 00:21:48;;;;;;;0.73;0.63;;;;;;;20.55;57.11;94418.00;5086836;28;20280;-74
2023/10/22 00:24:15;;;;;;;0.35;0.35;;;;;;;20.45;56.82;94407.81;5076250;28;20217;-75
2023/10/22 00:26:43;;;;;;;0.13;0.13;;;;;;;20.45;55.79;94413.31;5092751;28;20198;-73
2023/10/22 00:29:12;;;;;;;0.40;0.40;;;;;;;20.60;54.22;94413.28;5092677;28;20206;-74
2023/10/22 00:31:39;;;;;;;0.30;0.30;;;;;;;20.64;54.38;94414.84;5093239;28;20207;-75
2023/10/22 00:34:06;;;;;;;0.20;0.20;;;;;;;20.66;53.90;94429.00;5087822;28;20206;-74
2023/10/22 00:36:40;;;;;;;0.32;0.22;;;;;;;20.73;52.87;94428.22;5092465;28;20225;-74
2023/10/22 00:39:07;;;;;;;0.20;0.20;;;;;;;20.68;53.12;94421.13;5094735;28;20193;-78
2023/10/22 00:41:34;;;;;;;2.63;0.93;;;;;;;20.74;52.33;94424.28;5092168;28;20209;-80
2023/10/22 00:44:01;;;;;;;1.23;0.82;;;;;;;20.95;50.54;94440.72;5092525;28;20195;-79
2023/10/22 00:46:28;;;;;;;1.75;0.40;;;;;;;21.08;49.79;94439.09;5092214;28;20660;-79
2023/10/22 00:48:56;;;;;;;0.38;0.38;;;;;;;21.16;49.65;94440.66;5088250;28;20669;-78
2023/10/22 00:51:24;;;;;;;1.55;0.75;;;;;;;21.13;49.25;94435.16;5095836;28;20202;-79
2023/10/22 00:53:53;;;;;;;1.05;0.63;;;;;;;21.19;48.35;94439.88;5092276;28;20604;-78
2023/10/22 00:56:22;;;;;;;1.00;0.80;;;;;;;21.35;47.79;94425.63;5077038;28;20560;-78
2023/10/22 00:58:49;;;;;;;1.42;0.60;;;;;;;21.33;47.35;94421.72;5087587;28;20202;-77
2023/10/22 01:01:18;;;;;;;0.40;0.40;;;;;;;21.23;48.88;94435.13;5092052;28;20213;-73
2023/10/22 01:03:45;;;;;;;0.20;0.20;;;;;;;21.07;50.87;94437.53;5091892;28;20210;-73
2023/10/22 01:06:12;;;;;;;0.30;0.30;;;;;;;20.83;52.78;94433.69;5091965;28;20296;-75
2023/10/22 01:08:39;;;;;;;0.30;0.30;;;;;;;20.83;52.74;94438.41;5091004;28;20596;-73
2023/10/22 01:11:09;;;;;;;0.40;0.40;;;;;;;20.63;53.76;94431.78;5082548;28;20574;-74
2023/10/22 01:13:36;;;;;;;0.65;0.63;;;;;;;20.57;53.86;94437.66;5080202;28;20210;-72
2023/10/22 01:16:03;;;;;;;1.15;0.65;;;;;;;20.46;53.84;94423.16;5089922;28;20241;-73
2023/10/22 01:18:30;;;;;;;4.15;0.70;;;;;;;20.66;51.83;94422.69;5091539;28;20568;-76
2023/10/22 01:20:57;;;;;;;0.82;0.82;;;;;;;20.82;51.43;94420.31;5091588;28;20203;-75
2023/10/22 01:23:27;;;;;;;1.58;1.48;;;;;;;20.90;50.55;94428.16;5091532;28;20251;-73
2023/10/22 01:25:54;;;;;;;0.30;0.30;;;;;;;20.92;52.13;94427.75;5091654;28;20202;-74
2023/10/22 01:28:21;;;;;;;0.30;0.30;;;;;;;20.69;53.40;94427.41;5075555;28;21519;-74
2023/10/22 01:30:47;;;;;;;0.10;0.10;;;;;;;20.61;53.72;94431.38;5091514;28;20210;-76
2023/10/22 01:33:14;;;;;;;0.30;0.30;;;;;;;20.48;54.48;94422.75;5091293;28;20217;-76
2023/10/22 01:35:41;;;;;;;0.45;0.45;;;;;;;20.34;55.41;94429.03;5091804;28;20237;-77
2023/10/22 01:38:08;;;;;;;0.30;0.30;;;;;;;20.37;55.09;94430.22;5091328;28;20202;-76
2023/10/22 01:40:36;;;;;;;0.20;0.20;;;;;;;20.34;54.95;94434.53;5090839;28;20194;-77
2023/10/22 01:43:03;;;;;;;2.80;0.80;;;;;;;20.36;55.14;94443.22;5091449;28;20212;-77
2023/10/22 01:45:30;;;;;;;0.20;0.20;;;;;;;20.32;54.85;94430.59;5091074;28;20579;-77
2023/10/22 01:47:57;;;;;;;0.30;0.15;;;;;;;20.32;54.94;94431.38;5088449;28;20199;-76
2023/10/22 01:50:24;;;;;;;4.07;0.70;;;;;;;20.48;53.43;94426.28;5090869;28;20549;-76
2023/10/22 01:52:51;;;;;;;0.15;0.15;;;;;;;20.55;53.38;94426.28;5091166;28;20206;-77
2023/10/22 01:55:18;;;;;;;3.20;0.73;;;;;;;20.47;53.70;94426.69;5090647;28;20202;-77
2023/10/22 01:57:46;;;;;;;0.20;0.20;;;;;;;20.88;50.46;94429.75;5091003;28;20325;-77
2023/10/22 02:00:14;;;;;;;13.07;1.58;;;;;;;20.83;51.11;94422.66;5090756;28;20608;-76
2023/10/22 02:02:40;;;;;;;3.30;0.77;;;;;;;20.75;52.15;94418.38;5090821;28;20202;-77
2023/10/22 02:05:08;;;;;;;0.60;0.60;;;;;;;20.61;52.81;94423.13;5090856;28;20202;-77
2023/10/22 02:07:37;;;;;;;1.55;1.30;;;;;;;20.57;51.81;94415.66;5090635;28;20233;-77
2023/10/22 02:10:04;;;;;;;0.65;0.40;;;;;;;20.71;50.66;94408.53;5090692;28;20214;-77
2023/10/22 02:12:31;;;;;;;4.72;0.98;;;;;;;20.71;51.41;94422.31;5087953;28;20202;-77
2023/10/22 02:14:59;;;;;;;2.53;0.93;;;;;;;20.57;52.21;94432.16;5080047;28;20221;-77
2023/10/22 02:17:26;;;;;;;0.38;0.38;;;;;;;20.48;52.59;94407.03;5090740;28;20287;-77
2023/10/22 02:19:53;;;;;;;0.63;0.50;;;;;;;20.29;53.43;94421.16;5090009;28;20206;-76
2023/10/22 02:22:20;;;;;;;0.25;0.25;;;;;;;20.19;53.38;94414.50;5090655;28;20289;-79
2023/10/22 02:24:48;;;;;;;0.20;0.20;;;;;;;20.12;53.73;94427.44;5082588;28;20276;-79
2023/10/22 02:27:15;;;;;;;0.20;0.20;;;;;;;20.19;52.48;94416.47;5076062;28;20202;-78
2023/10/22 02:29:42;;;;;;;0.30;0.30;;;;;;;20.22;52.53;94416.47;5086175;28;21127;-79
2023/10/22 02:32:10;;;;;;;1.88;0.80;;;;;;;20.15;52.10;94399.16;5089760;28;20256;-78
2023/10/22 02:34:37;;;;;;;0.50;0.45;;;;;;;20.08;52.75;94410.97;5089969;28;20996;-75
2023/10/22 02:37:05;;;;;;;0.43;0.43;;;;;;;20.06;52.16;94390.53;5090431;28;20225;-75
2023/10/22 02:39:32;;;;;;;1.23;0.68;;;;;;;19.94;52.85;94405.47;5089886;28;20206;-75
2023/10/22 02:41:59;;;;;;;1.38;1.10;;;;;;;19.91;52.51;94394.47;5090002;28;20217;-75
2023/10/22 02:44:26;;;;;;;0.75;0.75;;;;;;;19.82;52.66;94397.59;5089938;28;20206;-75
2023/10/22 02:46:52;;;;;;;0.20;0.20;;;;;;;19.85;53.15;94407.81;5090435;28;20217;-75
2023/10/22 02:49:21;;;;;;;0.32;0.22;;;;;;;19.83;52.89;94410.94;5087260;28;20646;-75
2023/10/22 02:51:48;;;;;;;0.20;0.20;;;;;;;19.78;52.68;94403.09;5089970;28;20675;-74
2023/10/22 02:54:16;;;;;;;3.63;0.93;;;;;;;19.77;52.79;94411.75;5071551;28;20198;-74
2023/10/22 02:56:42;;;;;;;0.77;0.68;;;;;;;19.66;53.32;94408.97;5077334;28;20226;-75
2023/10/22 02:59:09;;;;;;;0.40;0.40;;;;;;;19.60;53.12;94417.97;5090358;28;20573;-75
2023/10/22 03:01:36;;;;;;;0.68;0.60;;;;;;;19.59;53.42;94417.19;5077051;28;20202;-75
2023/10/22 03:04:04;;;;;;;0.63;0.63;;;;;;;19.55;53.48;94404.63;5088432;28;20229;-75
2023/10/22 03:06:32;;;;;;;2.17;0.90;;;;;;;19.54;53.83;94420.34;5089861;28;20629;-75
2023/10/22 03:08:58;;;;;;;0.95;0.80;;;;;;;19.60;53.83;94410.53;5090059;28;20617;-74
2023/10/22 03:11:25;;;;;;;3.38;1.20;;;;;;;19.82;52.50;94409.38;5089590;28;20283;-75
2023/10/22 03:13:52;;;;;;;1.90;0.70;;;;;;;19.81;52.75;94396.03;5076423;28;20276;-75
2023/10/22 03:16:19;;;;;;;0.40;0.40;;;;;;;19.86;52.67;94388.16;5089871;28;20233;-74
2023/10/22 03:18:47;;;;;;;0.52;0.52;;;;;;;19.93;52.26;94386.63;5089809;28;20260;-74
2023/10/22 03:21:16;;;;;;;0.65;0.65;;;;;;;19.87;52.75;94395.25;5087780;28;20213;-75
2023/10/22 03:23:45;;;;;;;0.80;0.75;;;;;;;19.66;53.33;94395.25;5089808;28;20279;-75
2023/10/22 03:26:14;;;;;;;2.05;1.02;;;;;;;19.49;54.40;94409.72;5092044;28;20206;-77
2023/10/22 03:28:41;;;;;;;0.63;0.52;;;;;;;19.36;54.34;94392.78;5077860;28;20616;-74
2023/10/22 03:31:08;;;;;;;1.20;0.80;;;;;;;19.24;55.05;94400.63;5089726;28;20222;-75
2023/10/22 03:33:35;;;;;;;2.47;1.17;;;;;;;19.21;55.08;94388.44;5090103;28;20852;-76
2023/10/22 03:36:03;;;;;;;0.30;0.30;;;;;;;19.22;54.82;94376.28;5088469;28;20233;-75
2023/10/22 03:38:30;;;;;;;0.43;0.43;;;;;;;19.16;55.21;94377.81;5089428;28;20281;-76
2023/10/22 03:41:00;;;;;;;0.28;0.28;;;;;;;19.08;55.41;94382.53;5089495;28;20293;-75
2023/10/22 03:43:28;;;;;;;0.10;0.10;;;;;;;18.97;55.63;94389.94;5089507;28;20202;-75
2023/10/22 03:45:55;;;;;;;0.40;0.40;;;;;;;18.97;55.63;94372.69;5091776;28;20241;-75
2023/10/22 03:48:22;;;;;;;0.30;0.30;;;;;;;18.95;55.56;94378.56;5090584;28;20198;-75
2023/10/22 03:50:49;;;;;;;0.10;0.10;;;;;;;18.88;55.55;94386.75;5093157;28;20202;-75
2023/10/22 03:53:16;;;;;;;0.30;0.30;;;;;;;18.97;55.66;94395.44;5093681;28;20225;-77
2023/10/22 03:55:43;;;;;;;0.20;0.20;;;;;;;18.99;56.04;94395.84;5106588;28;20205;-75
2023/10/22 03:58:12;;;;;;;0.50;0.50;;;;;;;18.96;56.12;94402.09;5091161;28;20245;-75
2023/10/22 04:00:39;;;;;;;0.38;0.38;;;;;;;18.91;56.15;94396.97;5093184;28;20658;-75
2023/10/22 04:03:07;;;;;;;1.17;0.65;;;;;;;18.96;55.78;94402.09;5093669;28;20289;-76
2023/10/22 04:05:33;;;;;;;0.10;0.10;;;;;;;18.91;56.07;94383.22;5092958;28;20194;-76
2023/10/22 04:08:00;;;;;;;0.30;0.30;;;;;;;18.79;56.42;94391.81;5092837;28;20275;-76
2023/10/22 04:10:27;;;;;;;2.13;1.55;;;;;;;18.73;56.93;94387.84;5078848;28;20199;-76
2023/10/22 04:12:54;;;;;;;1.02;0.75;;;;;;;18.68;56.91;94390.97;5076720;28;20633;-76
2023/10/22 04:15:23;;;;;;;0.20;0.20;;;;;;;18.78;56.74;94379.25;5085450;28;20210;-75
2023/10/22 04:17:50;;;;;;;1.23;1.13;;;;;;;18.63;57.08;94394.09;5092955;28;20218;-75
2023/10/22 04:20:17;;;;;;;0.50;0.50;;;;;;;18.41;58.57;94388.47;5092388;28;20569;-75
2023/10/22 04:22:45;;;;;;;0.30;0.30;;;;;;;18.23;58.73;94398.53;5090207;28;20214;-75
2023/10/22 04:25:15;;;;;;;1.42;1.33;;;;;;;18.16;58.96;94398.50;5092470;28;20309;-75
2023/10/22 04:27:42;;;;;;;1.20;0.65;;;;;;;18.08;59.66;94402.34;5085095;28;20205;-75
2023/10/22 04:30:09;;;;;;;1.02;0.93;;;;;;;18.09;59.51;94414.88;5091121;28;20543;-75
2023/10/22 04:32:37;;;;;;;1.65;0.85;;;;;;;18.03;59.88;94432.84;5080994;28;20206;-75
2023/10/22 04:35:05;;;;;;;0.20;0.20;;;;;;;17.99;60.08;94448.47;5080034;28;20222;-73
2023/10/22 04:37:32;;;;;;;0.22;0.22;;;;;;;17.89;60.43;94449.19;5082796;28;20222;-73
2023/10/22 04:39:59;;;;;;;1.13;0.60;;;;;;;17.72;60.65;94428.66;5082737;28;20209;-73
2023/10/22 04:42:26;;;;;;;2.55;0.95;;;;;;;17.70;60.95;94439.22;5084835;28;20191;-74
2023/10/22 04:44:53;;;;;;;0.50;0.50;;;;;;;17.65;60.88;94454.03;5092197;28;20242;-74
2023/10/22 04:47:20;;;;;;;5.28;1.20;;;;;;;17.67;60.96;94454.44;5092152;28;20659;-75
2023/10/22 04:49:51;;;;;;;2.60;1.00;;;;;;;17.68;60.70;94472.47;5089832;28;20358;-76
2023/10/22 04:52:22;;;;;;;0.65;0.52;;;;;;;17.62;60.26;94473.94;5092135;28;20206;-78
2023/10/22 04:54:50;;;;;;;2.00;1.30;;;;;;;17.49;60.94;94471.84;5088347;28;20215;-77
2023/10/22 04:57:17;;;;;;;3.92;0.70;;;;;;;17.50;60.39;94507.06;5091660;28;20226;-78
2023/10/22 04:59:45;;;;;;;1.13;0.57;;;;;;;17.50;61.20;94476.94;5091543;28;20206;-78
2023/10/22 05:02:12;;;;;;;0.45;0.45;;;;;;;17.44;60.96;94489.41;5092240;28;20199;-78
2023/10/22 05:04:38;;;;;;;0.32;0.32;;;;;;;17.59;60.77;94491.13;5092067;28;20213;-79
2023/10/22 05:07:07;;;;;;;0.50;0.50;;;;;;;17.69;60.42;94503.38;5091972;28;20302;-80
2023/10/22 05:09:34;;;;;;;0.40;0.40;;;;;;;17.65;60.51;94486.91;5091793;27;20202;-78
2023/10/22 05:12:01;;;;;;;0.30;0.30;;;;;;;17.74;60.45;94487.41;5092190;28;20872;-76
2023/10/22 05:14:29;;;;;;;0.17;0.17;;;;;;;17.83;59.98;94489.81;5073225;28;20298;-77
2023/10/22 05:16:56;;;;;;;0.30;0.30;;;;;;;17.70;61.51;94486.56;5071937;28;20632;-79
2023/10/22 05:19:23;;;;;;;14.80;2.08;;;;;;;17.66;61.12;94485.75;5071558;28;20207;-78
2023/10/22 05:21:50;;;;;;;0.10;0.10;;;;;;;17.68;61.04;94488.91;5071412;28;20219;-78
2023/10/22 05:24:18;;;;;;;0.40;0.40;;;;;;;17.70;61.55;94489.31;5071777;28;20209;-78
2023/10/22 05:26:45;;;;;;;0.70;0.45;;;;;;;17.63;62.12;94491.97;5071819;28;20217;-78
2023/10/22 05:29:14;;;;;;;0.32;0.32;;;;;;;17.57;61.63;94482.50;5077254;28;20206;-78
2023/10/22 05:31:42;;;;;;;0.80;0.75;;;;;;;17.65;61.96;94484.16;5088883;28;20272;-78
2023/10/22 05:34:09;;;;;;;0.40;0.40;;;;;;;17.49;62.12;94455.41;5091956;28;20264;-78
2023/10/22 05:36:36;;;;;;;0.35;0.35;;;;;;;17.61;61.36;94466.91;5091633;28;20233;-78
2023/10/22 05:39:04;;;;;;;0.10;0.10;;;;;;;17.66;61.45;94463.81;5082220;28;20207;-76
2023/10/22 05:41:35;;;;;;;0.30;0.30;;;;;;;17.44;63.38;94478.44;5071768;28;20191;-76
2023/10/22 05:44:05;;;;;;;0.85;0.70;;;;;;;17.49;63.48;94491.81;5076034;28;20272;-77
2023/10/22 05:46:38;;;;;;;1.85;0.90;;;;;;;17.61;63.73;94499.78;5070337;28;20707;-79
2023/10/22 05:49:07;;;;;;;0.30;0.30;;;;;;;17.47;63.24;94483.19;5070728;28;20199;-78
2023/10/22 05:51:34;;;;;;;0.47;0.45;;;;;;;17.52;63.27;94490.25;5072477;28;20291;-75
2023/10/22 05:54:01;;;;;;;0.10;0.10;;;;;;;17.45;64.40;94487.44;5084014;28;20539;-78
2023/10/22 05:56:34;;;;;;;0.20;0.20;;;;;;;17.38;65.82;94468.97;5077341;28;20203;-76
2023/10/22 05:59:08;;;;;;;0.45;0.45;;;;;;;17.48;67.23;94506.66;5080908;28;20198;-75
2023/10/22 06:01:38;;;;;;;0.55;0.55;;;;;;;17.54;66.91;94507.09;5081425;28;20226;-75
2023/10/22 06:04:06;;;;;;;0.55;0.55;;;;;;;17.70;66.74;94530.41;5082301;28;20210;-78
2023/10/22 06:06:32;;;;;;;0.68;0.68;;;;;;;17.72;65.88;94530.84;5081331;28;20278;-77
2023/10/22 06:08:59;;;;;;;0.10;0.10;;;;;;;17.61;66.91;94488.81;5080994;28;20356;-76
2023/10/22 06:11:29;;;;;;;0.22;0.22;;;;;;;17.66;67.36;94504.91;5081296;28;20263;-76
2023/10/22 06:13:57;;;;;;;0.93;0.90;;;;;;;17.55;67.63;94553.28;5078995;28;20199;-77
2023/10/22 06:16:24;;;;;;;0.38;0.38;;;;;;;17.67;67.43;94564.03;5070261;28;20195;-77
2023/10/22 06:18:53;;;;;;;0.40;0.40;;;;;;;17.84;67.54;94572.84;5070177;28;20219;-76
2023/10/22 06:21:22;;;;;;;0.30;0.30;;;;;;;18.02;67.73;94590.25;5076798;28;20967;-77
2023/10/22 06:23:51;;;;;;;0.17;0.17;;;;;;;18.10;67.51;94578.19;5077500;28;20572;-77
2023/10/22 06:26:19;;;;;;;3.30;1.10;;;;;;;18.08;67.47;94564.06;5081099;28;20566;-76
2023/10/22 06:28:46;;;;;;;1.00;1.00;;;;;;;18.09;68.45;94532.75;5080190;28;20245;-76
2023/10/22 06:31:14;;;;;;;0.20;0.20;;;;;;;18.05;68.51;94531.94;5082771;28;20208;-74
2023/10/22 06:33:42;;;;;;;2.92;0.93;;;;;;;18.08;68.89;94545.66;5070259;28;20581;-78
2023/10/22 06:36:14;;;;;;;0.75;0.57;;;;;;;18.08;69.61;94567.59;5070103;28;20206;-77
2023/10/22 06:38:44;;;;;;;0.55;0.55;;;;;;;18.19;68.71;94588.84;5070012;28;20305;-77
2023/10/22 06:41:16;;;;;;;2.05;0.93;;;;;;;18.30;68.03;94584.28;5070440;28;20218;-76
2023/10/22 06:43:43;;;;;;;0.38;0.38;;;;;;;18.41;67.03;94585.94;5070462;28;20563;-77
2023/10/22 06:46:11;;;;;;;1.33;0.93;;;;;;;18.52;67.53;94569.56;5069847;28;20242;-81
2023/10/22 06:48:39;;;;;;;1.05;0.98;;;;;;;18.66;66.76;94577.16;5070528;28;20195;-80
2023/10/22 06:51:10;;;;;;;0.63;0.63;;;;;;;19.00;66.37;94584.06;5068933;28;20598;-78
2023/10/22 06:53:37;;;;;;;1.13;0.68;;;;;;;18.80;66.63;94578.06;5080907;28;20511;-78
2023/10/22 06:56:06;;;;;;;0.43;0.43;;;;;;;18.95;65.87;94562.50;5072760;28;20207;-79
2023/10/22 06:58:33;;;;;;;0.85;0.65;;;;;;;19.11;65.80;94571.22;5070768;28;20246;-79
2023/10/22 07:01:07;;;;;;;0.30;0.30;;;;;;;19.43;65.78;94567.84;5076470;28;20214;-80
2023/10/22 07:03:35;;;;;;;0.47;0.43;;;;;;;19.77;64.68;94582.97;5079115;28;20257;-78
2023/10/22 07:06:03;;;;;;;1.50;1.17;;;;;;;19.87;64.37;94560.19;5077409;28;20206;-76
2023/10/22 07:08:30;;;;;;;10.85;0.82;;;;;;;19.79;63.95;94539.38;5088643;28;20232;-78
2023/10/22 07:10:58;;;;;;;1.23;1.05;;;;;;;20.14;63.55;94579.13;5074277;28;20210;-78
2023/10/22 07:13:25;;;;;;;0.90;0.70;;;;;;;20.62;62.73;94570.59;5073367;28;21243;-78
2023/10/22 07:15:52;;;;;;;0.50;0.50;;;;;;;20.46;62.00;94552.50;5077542;28;20558;-80
2023/10/22 07:18:20;;;;;;;1.08;0.50;;;;;;;20.77;60.52;94566.66;5081950;28;20317;-75
2023/10/22 07:20:47;;;;;;;2.85;0.85;;;;;;;21.04;60.50;94570.56;5080730;28;20733;-79
2023/10/22 07:23:16;;;;;;;1.48;1.15;;;;;;;21.01;59.93;94585.13;5075210;28;20746;-78
2023/10/22 07:25:44;;;;;;;1.98;1.30;;;;;;;20.98;58.83;94571.34;5072051;28;20215;-77
2023/10/22 07:28:13;;;;;;;2.47;1.48;;;;;;;20.64;60.67;94557.22;5073789;28;20655;-78
2023/10/22 07:30:47;;;;;;;2.08;1.40;;;;;;;20.75;60.16;94569.81;5083304;28;20258;-78
2023/10/22 07:33:14;;;;;;;4.65;1.15;;;;;;;21.16;59.06;94556.38;5080512;28;20655;-77
2023/10/22 07:35:52;;;;;;;4.40;1.27;;;;;;;21.05;58.93;94565.81;5077127;28;20574;-77
2023/10/22 07:38:21;;;;;;;1.65;1.27;;;;;;;21.24;59.03;94563.47;5083978;28;20218;-80
2023/10/22 07:40:50;;;;;;;1.38;1.27;;;;;;;21.15;59.22;94563.06;5081903;28;20630;-78
2023/10/22 07:43:17;;;;;;;2.50;1.55;;;;;;;21.62;58.54;94550.75;5079499;28;20206;-78
2023/10/22 07:45:45;;;;;;;3.20;2.20;;;;;;;21.06;59.06;94548.13;5079241;28;20245;-76
2023/10/22 07:48:12;;;;;;;1.63;1.10;;;;;;;20.69;60.49;94563.09;5083616;28;20199;-77
2023/10/22 07:50:39;;;;;;;1.42;1.33;;;;;;;21.02;60.27;94561.91;5081629;28;20647;-78
2023/10/22 07:53:06;;;;;;;0.45;0.45;;;;;;;21.27;59.81;94557.16;5076276;28;20225;-76
2023/10/22 07:55:34;;;;;;;4.60;2.95;;;;;;;21.49;57.78;94551.56;5083692;28;20199;-77
2023/10/22 07:58:01;;;;;;;1.25;1.13;;;;;;;22.04;56.75;94548.22;5082113;28;20656;-79
2023/10/22 08:00:28;;;;;;;2.70;1.10;;;;;;;22.40;55.74;94544.06;5075944;28;20679;-80
2023/10/22 08:02:56;;;;;;;4.13;1.50;;;;;;;22.60;55.41;94531.28;5079149;28;20210;-80
2023/10/22 08:05:23;;;;;;;1.52;0.90;;;;;;;22.80;55.28;94544.56;5086785;28;20306;-77
2023/10/22 08:07:50;;;;;;;2.10;0.90;;;;;;;22.70;54.62;94535.91;5084612;28;20223;-77
2023/10/22 08:10:17;;;;;;;2.78;1.90;;;;;;;23.02;54.30;94535.66;5077234;28;20209;-76
2023/10/22 08:12:45;;;;;;;3.97;2.35;;;;;;;22.85;53.94;94530.28;5087678;28;20214;-77
2023/10/22 08:15:12;;;;;;;3.85;1.83;;;;;;;22.91;54.33;94529.47;5075804;28;20198;-77
2023/10/22 08:17:39;;;;;;;5.20;2.05;;;;;;;22.92;54.18;94516.44;5080675;28;20206;-76
2023/10/22 08:20:07;;;;;;;4.75;2.58;;;;;;;23.43;53.72;94525.78;5076539;28;20606;-77
2023/10/22 08:22:34;;;;;;;2.63;1.80;;;;;;;23.04;52.94;94500.13;5071261;28;20260;-76
2023/10/22 08:25:01;;;;;;;7.63;2.42;;;;;;;23.50;52.53;94526.50;5072767;28;20215;-77
2023/10/22 08:27:28;;;;;;;3.17;1.60;;;;;;;23.30;51.80;94511.69;5088426;28;20202;-75
2023/10/22 08:29:56;;;;;;;5.45;2.22;;;;;;;22.90;53.26;94513.28;5087949;28;20211;-76
2023/10/22 08:32:23;;;;;;;4.60;2.28;;;;;;;23.23;52.44;94518.09;5071169;28;20294;-75
2023/10/22 08:34:50;;;;;;;3.63;1.92;;;;;;;23.44;52.83;94506.00;5078067;28;20551;-74
2023/10/22 08:37:16;;;;;;;6.18;2.25;;;;;;;23.55;52.09;94509.44;5081983;28;20211;-77
2023/10/22 08:39:43;;;;;;;6.20;2.20;;;;;;;23.00;52.78;94509.63;5082535;28;20614;-78
2023/10/22 08:42:16;;;;;;;2.85;1.48;;;;;;;23.28;48.42;94503.81;5081648;28;20609;-75
2023/10/22 08:44:46;;;;;;;2.97;1.67;;;;;;;23.72;50.05;94489.09;5073491;28;20207;-76
2023/10/22 08:47:15;;;;;;;2.83;1.58;;;;;;;23.99;49.82;94497.44;5083852;28;20279;-78
2023/10/22 08:49:44;;;;;;;4.53;2.47;;;;;;;24.36;48.04;94482.66;5073737;28;20276;-78
2023/10/22 08:52:11;;;;;;;1.60;1.23;;;;;;;24.34;47.18;94484.28;5089676;28;20683;-76
2023/10/22 08:54:38;;;;;;;2.42;1.40;;;;;;;24.86;45.65;94481.06;5077579;28;20480;-76
2023/10/22 08:57:06;;;;;;;2.08;1.30;;;;;;;24.99;45.75;94479.28;5088317;28;20631;-77
2023/10/22 08:59:36;;;;;;;3.72;1.90;;;;;;;25.20;43.23;94472.53;5083593;28;20226;-79
2023/10/22 09:02:07;;;;;;;1.20;0.80;;;;;;;25.38;41.75;94479.31;5076555;28;20229;-78
2023/10/22 09:04:35;;;;;;;1.65;1.50;;;;;;;25.15;40.93;94466.28;5074817;28;20207;-78
2023/10/22 09:07:03;;;;;;;1.13;0.90;;;;;;;25.27;41.47;94472.41;5076710;28;20230;-76
2023/10/22 09:09:31;;;;;;;1.00;0.90;;;;;;;25.17;42.02;94468.63;5087596;28;20675;-76
2023/10/22 09:11:58;;;;;;;0.75;0.68;;;;;;;24.96;41.55;94475.34;5081255;28;20221;-78
2023/10/22 09:14:28;;;;;;;1.67;1.40;;;;;;;24.84;41.75;94466.84;5075342;28;20206;-76
2023/10/22 09:16:57;;;;;;;1.65;0.80;;;;;;;24.79;42.29;94471.66;5079822;28;20214;-77
2023/10/22 09:19:39;;;;;;;1.58;0.77;;;;;;;24.78;42.22;94472.88;5083571;28;20221;-77
2023/10/22 09:22:06;;;;;;;1.40;0.88;;;;;;;24.84;42.38;94480.69;5086007;28;20732;-76
2023/10/22 09:24:49;;;;;;;0.68;0.63;;;;;;;25.09;41.89;94490.16;5081958;28;20678;-76
2023/10/22 09:27:26;;;;;;;2.47;0.88;;;;;;;25.48;41.61;94471.97;5070573;28;20646;-76
2023/10/22 09:29:54;;;;;;;1.55;0.80;;;;;;;25.84;41.24;94477.59;5083856;28;20209;-76
2023/10/22 09:32:22;;;;;;;0.77;0.75;;;;;;;25.91;40.99;94463.56;5084009;28;20242;-77
2023/10/22 09:34:51;;;;;;;1.20;1.10;;;;;;;25.79;39.98;94464.25;5069945;28;20605;-78
2023/10/22 09:37:17;;;;;;;1.85;1.00;;;;;;;26.14;39.41;94474.56;5074524;28;20301;-77
2023/10/22 09:39:45;;;;;;;1.83;1.05;;;;;;;26.13;39.39;94461.09;5075794;28;20230;-76
2023/10/22 09:42:16;;;;;;;2.00;1.27;;;;;;;26.16;39.04;94452.69;5074925;28;20639;-75
2023/10/22 09:44:44;;;;;;;1.80;0.98;;;;;;;26.05;39.53;94443.03;5082513;28;20209;-78
2023/10/22 09:47:19;;;;;;;4.72;1.40;;;;;;;26.42;39.00;94455.69;5081119;28;20705;-76
2023/10/22 09:49:57;;;;;;;1.98;0.65;;;;;;;25.98;38.09;94418.97;5074300;28;20302;-75
2023/10/22 09:52:25;;;;;;;1.75;1.48;;;;;;;26.19;38.01;94431.59;5077848;28;20199;-77
2023/10/22 09:54:55;;;;;;;1.73;0.95;;;;;;;26.29;38.42;94435.38;5074161;28;20586;-76
2023/10/22 09:57:28;;;;;;;6.30;1.35;;;;;;;26.29;39.05;94424.25;5070314;28;20229;-73
2023/10/22 09:59:58;;;;;;;1.08;0.68;;;;;;;26.06;39.16;94425.97;5075757;28;20609;-76
2023/10/22 10:02:26;;;;;;;2.63;0.98;;;;;;;26.24;38.81;94421.97;5075875;28;20199;-75
2023/10/22 10:04:55;;;;;;;1.75;1.00;;;;;;;26.35;39.02;94416.97;5072654;28;20206;-76
2023/10/22 10:07:23;;;;;;;1.25;0.90;;;;;;;26.46;38.73;94417.50;5073634;28;20485;-75
2023/10/22 10:09:51;;;;;;;1.00;0.90;;;;;;;26.08;37.77;94411.66;5074131;28;20218;-76
2023/10/22 10:12:21;;;;;;;2.30;1.10;;;;;;;26.28;37.98;94414.31;5081139;28;20206;-77
2023/10/22 10:14:49;;;;;;;1.45;0.80;;;;;;;26.27;37.83;94405.22;5080525;28;20213;-77
2023/10/22 10:17:18;;;;;;;2.35;0.90;;;;;;;26.47;37.21;94413.50;5077778;28;20215;-75
2023/10/22 10:19:47;;;;;;;2.08;1.48;;;;;;;26.61;37.22;94399.25;5077227;28;20659;-75
2023/10/22 10:22:38;;;;;;;4.22;1.20;;;;;;;26.15;37.55;94415.03;5076430;28;20253;-76
2023/10/22 10:25:27;;;;;;;1.10;0.70;;;;;;;26.40;37.12;94408.09;5070078;28;20280;-74
2023/10/22 10:27:54;;;;;;;0.80;0.80;;;;;;;26.66;37.58;94409.03;5087048;28;20206;-75
2023/10/22 10:30:24;;;;;;;1.50;1.15;;;;;;;26.62;37.26;94402.81;5076494;28;20210;-77
2023/10/22 10:32:54;;;;;;;2.50;1.27;;;;;;;26.58;37.16;94391.78;5090424;28;20210;-76
2023/10/22 10:35:22;;;;;;;2.80;0.90;;;;;;;26.00;37.82;94380.47;5088980;28;20206;-74
2023/10/22 10:38:28;;;;;;;3.28;0.95;;;;;;;26.04;38.33;94386.72;5084355;28;20218;-75
2023/10/22 10:40:56;;;;;;;4.50;0.73;;;;;;;26.19;38.64;94387.94;5069184;28;20215;-76
2023/10/22 10:43:56;;;;;;;2.72;1.80;;;;;;;26.12;38.36;94377.00;5076575;28;20211;-74
2023/10/22 10:46:26;;;;;;;4.53;0.90;;;;;;;26.30;38.29;94376.59;5087865;28;20628;-74
2023/10/22 10:48:53;;;;;;;1.63;1.00;;;;;;;26.37;38.09;94359.78;5077777;28;20630;-77
2023/10/22 10:51:21;;;;;;;1.75;1.05;;;;;;;26.55;37.98;94367.63;5068885;28;20210;-75
2023/10/22 10:54:21;;;;;;;4.45;1.15;;;;;;;26.28;37.66;94372.66;5069001;28;20567;-75
2023/10/22 10:56:58;;;;;;;1.15;0.70;;;;;;;26.23;37.40;94367.66;5068234;28;20315;-75
2023/10/22 10:59:36;;;;;;;1.80;1.25;;;;;;;26.09;38.16;94369.56;5068808;28;20345;-75
2023/10/22 11:02:11;;;;;;;1.77;1.10;;;;;;;25.94;38.29;94376.66;5069758;28;20203;-76
2023/10/22 11:04:44;;;;;;;1.27;0.95;;;;;;;26.35;38.70;94378.09;5067057;28;21295;-77
2023/10/22 11:07:11;;;;;;;1.98;0.85;;;;;;;26.22;38.14;94374.41;5078136;28;20631;-76
2023/10/22 11:09:40;;;;;;;1.88;1.38;;;;;;;26.36;38.49;94386.00;5074571;28;20195;-76
2023/10/22 11:12:10;;;;;;;2.60;1.02;;;;;;;26.24;38.06;94378.31;5082081;28;20567;-78
2023/10/22 11:14:38;;;;;;;5.60;1.55;;;;;;;26.55;38.43;94364.84;5075896;28;20211;-73
2023/10/22 11:17:05;;;;;;;0.55;0.52;;;;;;;26.04;38.44;94364.53;5080114;28;20202;-76
2023/10/22 11:19:33;;;;;;;0.98;0.80;;;;;;;26.34;38.00;94379.31;5079055;28;20222;-77
2023/10/22 11:22:00;;;;;;;5.03;1.02;;;;;;;26.81;37.97;94377.66;5086172;28;20206;-77
2023/10/22 11:24:30;;;;;;;4.13;1.20;;;;;;;26.84;37.64;94376.00;5088409;28;20616;-75
2023/10/22 11:27:00;;;;;;;2.80;1.00;;;;;;;26.61;38.44;94379.78;5074571;28;20274;-74
2023/10/22 11:29:27;;;;;;;2.00;0.68;;;;;;;26.56;38.43;94383.09;5079060;28;20210;-74
2023/10/22 11:31:56;;;;;;;1.73;1.48;;;;;;;26.31;39.02;94371.84;5069091;28;20218;-74
2023/10/22 11:34:23;;;;;;;2.92;0.95;;;;;;;26.38;38.88;94363.31;5068440;28;20199;-75
2023/10/22 11:36:58;;;;;;;4.18;1.88;;;;;;;26.45;39.12;94363.13;5068180;28;20207;-75
2023/10/22 11:39:34;;;;;;;4.15;1.08;;;;;;;26.72;38.79;94354.50;5068486;28;20300;-75
2023/10/22 11:42:07;;;;;;;3.15;1.15;;;;;;;26.68;39.09;94357.34;5069457;28;20617;-74